createdAt,value
2023-04-26T00:01:04.512Z,2.58
2023-04-26T00:03:31.184Z,1.80
2023-04-26T00:05:59.742Z,2.80
2023-04-26T00:08:26.203Z,1.90
2023-04-26T00:10:52.654Z,1.88
2023-04-26T00:13:19.118Z,1.73
2023-04-26T00:15:45.548Z,1.92
2023-04-26T00:18:13.470Z,2.58
2023-04-26T00:20:39.973Z,2.20
2023-04-26T00:23:06.448Z,2.00
2023-04-26T00:25:32.954Z,1.90
2023-04-26T00:27:59.437Z,1.73
2023-04-26T00:30:25.907Z,2.33
2023-04-26T00:32:52.352Z,1.83
2023-04-26T00:35:20.469Z,1.52
2023-04-26T00:37:47.049Z,1.50
2023-04-26T00:40:14.037Z,1.90
2023-04-26T00:42:40.498Z,1.50
2023-04-26T00:45:08.086Z,1.40
2023-04-26T00:47:35.512Z,1.42
2023-04-26T00:50:02.185Z,1.80
2023-04-26T00:52:30.839Z,1.88
2023-04-26T00:54:57.786Z,1.70
2023-04-26T00:57:24.255Z,1.83
2023-04-26T00:59:50.717Z,2.20
2023-04-26T01:02:17.307Z,2.17
2023-04-26T01:04:44.132Z,2.42
2023-04-26T01:07:10.727Z,1.92
2023-04-26T01:09:39.287Z,1.70
2023-04-26T01:12:07.302Z,1.85
2023-04-26T01:14:34.318Z,2.40
2023-04-26T01:17:01.904Z,2.70
2023-04-26T01:19:28.423Z,2.60
2023-04-26T01:21:54.936Z,2.38
2023-04-26T01:24:22.759Z,2.75
2023-04-26T01:26:49.784Z,2.08
2023-04-26T01:29:17.094Z,3.20
2023-04-26T01:31:44.095Z,2.10
2023-04-26T01:34:10.585Z,2.00
2023-04-26T01:36:37.078Z,2.10
2023-04-26T01:39:03.908Z,2.38
2023-04-26T01:41:31.746Z,2.70
2023-04-26T01:43:58.234Z,2.20
2023-04-26T01:46:24.855Z,2.22
2023-04-26T01:48:51.590Z,2.78
2023-04-26T01:51:18.324Z,2.72
2023-04-26T01:53:44.808Z,1.98
2023-04-26T01:56:11.323Z,2.40
2023-04-26T01:58:39.209Z,1.75
2023-04-26T02:01:07.952Z,2.72
2023-04-26T02:03:35.016Z,2.50
2023-04-26T02:06:01.846Z,2.40
2023-04-26T02:08:28.350Z,2.70
2023-04-26T02:10:54.827Z,2.47
2023-04-26T02:13:21.497Z,2.17
2023-04-26T02:15:49.760Z,3.40
2023-04-26T02:18:17.237Z,2.60
2023-04-26T02:20:44.421Z,2.78
2023-04-26T02:23:11.519Z,3.50
2023-04-26T02:25:39.029Z,2.80
2023-04-26T02:28:05.966Z,2.75
2023-04-26T02:30:32.659Z,2.92
2023-04-26T02:33:00.547Z,2.75
2023-04-26T02:35:27.074Z,2.75
2023-04-26T02:37:53.534Z,2.47
2023-04-26T02:40:20.558Z,2.60
2023-04-26T02:42:47.548Z,2.53
2023-04-26T02:45:14.235Z,2.50
2023-04-26T02:47:40.803Z,2.88
2023-04-26T02:50:09.934Z,2.80
2023-04-26T02:52:37.027Z,2.75
2023-04-26T02:55:03.952Z,2.90
2023-04-26T02:57:30.451Z,2.65
2023-04-26T02:59:57.313Z,2.42
2023-04-26T03:02:24.019Z,3.17
2023-04-26T03:04:50.609Z,2.88
2023-04-26T03:07:18.441Z,3.30
2023-04-26T03:09:44.968Z,2.97
2023-04-26T03:12:12.080Z,2.83
2023-04-26T03:14:38.780Z,2.70
2023-04-26T03:17:05.353Z,3.35
2023-04-26T03:19:31.844Z,3.15
2023-04-26T03:21:58.302Z,2.60
2023-04-26T03:24:26.521Z,3.10
2023-04-26T03:26:53.056Z,2.28
2023-04-26T03:29:19.605Z,3.10
2023-04-26T03:31:46.125Z,2.75
2023-04-26T03:34:12.689Z,2.80
2023-04-26T03:36:39.184Z,3.60
2023-04-26T03:39:05.782Z,3.50
2023-04-26T03:41:33.647Z,3.17
2023-04-26T03:44:00.201Z,3.20
2023-04-26T03:46:26.823Z,3.25
2023-04-26T03:48:53.741Z,3.38
2023-04-26T03:51:20.437Z,3.22
2023-04-26T03:53:47.162Z,2.67
2023-04-26T03:56:13.705Z,2.80
2023-04-26T03:58:41.561Z,2.67
2023-04-26T04:01:08.024Z,3.05
2023-04-26T04:03:34.913Z,3.85
2023-04-26T04:06:01.850Z,2.97
2023-04-26T04:08:28.414Z,3.63
2023-04-26T04:10:55.657Z,2.70
2023-04-26T04:13:22.250Z,3.70
2023-04-26T04:15:50.214Z,3.00
2023-04-26T04:18:16.908Z,3.63
2023-04-26T04:20:43.501Z,2.95
2023-04-26T04:23:10.053Z,3.40
2023-04-26T04:25:36.637Z,3.92
2023-04-26T04:28:03.439Z,4.10
2023-04-26T04:30:30.399Z,4.05
2023-04-26T04:32:58.343Z,3.72
2023-04-26T04:35:24.857Z,3.92
2023-04-26T04:37:51.380Z,4.22
2023-04-26T04:40:18.039Z,3.78
2023-04-26T04:42:44.542Z,4.55
2023-04-26T04:45:11.263Z,3.65
2023-04-26T04:47:37.948Z,4.57
2023-04-26T04:50:07.576Z,3.65
2023-04-26T04:52:34.236Z,3.95
2023-04-26T04:55:00.822Z,4.82
2023-04-26T04:57:27.332Z,4.60
2023-04-26T04:59:53.820Z,4.95
2023-04-26T05:02:20.450Z,4.50
2023-04-26T05:04:47.135Z,5.63
2023-04-26T05:07:15.043Z,5.10
2023-04-26T05:09:41.859Z,5.22
2023-04-26T05:12:08.373Z,5.07
2023-04-26T05:14:34.867Z,5.88
2023-04-26T05:17:01.564Z,5.78
2023-04-26T05:19:28.112Z,6.45
2023-04-26T05:21:54.589Z,6.60
2023-04-26T05:24:22.394Z,6.45
2023-04-26T05:26:48.919Z,6.35
2023-04-26T05:29:15.446Z,7.43
2023-04-26T05:31:42.003Z,7.28
2023-04-26T05:34:08.549Z,6.72
2023-04-26T05:36:35.100Z,7.35
2023-04-26T05:39:01.596Z,10.35
2023-04-26T05:41:29.440Z,7.25
2023-04-26T05:43:55.932Z,8.82
2023-04-26T05:46:22.725Z,7.72
2023-04-26T05:48:49.426Z,7.60
2023-04-26T05:51:15.967Z,7.85
2023-04-26T05:53:42.449Z,8.02
2023-04-26T05:56:09.191Z,7.47
2023-04-26T05:58:37.018Z,7.55
2023-04-26T06:01:03.506Z,8.13
2023-04-26T06:03:30.318Z,7.72
2023-04-26T06:05:57.162Z,8.20
2023-04-26T06:08:23.824Z,7.97
2023-04-26T06:10:50.568Z,6.72
2023-04-26T06:13:17.089Z,7.80
2023-04-26T06:15:44.929Z,7.55
2023-04-26T06:18:11.441Z,7.10
2023-04-26T06:20:38.004Z,8.10
2023-04-26T06:23:04.515Z,7.70
2023-04-26T06:25:31.047Z,7.15
2023-04-26T06:27:57.573Z,8.20
2023-04-26T06:30:24.191Z,8.18
2023-04-26T06:32:52.040Z,8.57
2023-04-26T06:35:18.610Z,7.68
2023-04-26T06:37:45.119Z,7.75
2023-04-26T06:40:12.243Z,7.85
2023-04-26T06:42:38.783Z,9.07
2023-04-26T06:45:06.235Z,8.05
2023-04-26T06:47:32.801Z,7.35
2023-04-26T06:50:00.880Z,7.65
2023-04-26T06:52:27.553Z,8.52
2023-04-26T06:54:57.328Z,6.97
2023-04-26T06:57:24.331Z,7.13
2023-04-26T06:59:50.832Z,7.68
2023-04-26T07:02:17.437Z,7.82
2023-04-26T07:04:44.067Z,6.70
2023-04-26T07:07:13.416Z,7.20
2023-04-26T07:09:40.349Z,6.88
2023-04-26T07:12:07.020Z,6.93
2023-04-26T07:14:33.704Z,7.10
2023-04-26T07:17:00.199Z,7.05
2023-04-26T07:19:26.718Z,6.88
2023-04-26T07:21:53.189Z,6.68
2023-04-26T07:24:21.018Z,6.75
2023-04-26T07:26:47.557Z,5.70
2023-04-26T07:29:14.061Z,7.28
2023-04-26T07:31:40.705Z,5.15
2023-04-26T07:34:07.266Z,5.63
2023-04-26T07:36:33.780Z,5.82
2023-04-26T07:39:00.309Z,5.05
2023-04-26T07:41:28.144Z,5.13
2023-04-26T07:43:54.811Z,4.82
2023-04-26T07:46:21.868Z,5.05
2023-04-26T07:48:48.416Z,4.55
2023-04-26T07:51:14.961Z,4.03
2023-04-26T07:53:41.479Z,4.18
2023-04-26T07:56:09.302Z,3.53
2023-04-26T07:58:38.122Z,3.80
2023-04-26T08:01:05.061Z,4.47
2023-04-26T08:03:31.816Z,3.50
2023-04-26T08:05:58.734Z,3.40
2023-04-26T08:08:25.818Z,3.05
2023-04-26T08:10:52.324Z,3.30
2023-04-26T08:13:18.878Z,3.08
2023-04-26T08:15:46.941Z,4.00
2023-04-26T08:18:13.416Z,2.75
2023-04-26T08:20:40.153Z,3.03
2023-04-26T08:23:06.708Z,3.17
2023-04-26T08:25:33.204Z,3.20
2023-04-26T08:27:59.705Z,3.08
2023-04-26T08:30:26.332Z,3.15
2023-04-26T08:32:54.226Z,2.72
2023-04-26T08:35:20.773Z,2.53
2023-04-26T08:37:47.332Z,1.77
2023-04-26T08:40:13.871Z,1.25
2023-04-26T08:42:42.161Z,1.38
2023-04-26T08:45:09.609Z,1.23
2023-04-26T08:47:40.274Z,0.70
2023-04-26T08:50:11.658Z,0.73
2023-04-26T08:52:39.612Z,0.65
2023-04-26T08:55:07.681Z,0.90
2023-04-26T08:57:35.044Z,1.13
2023-04-26T09:00:02.771Z,0.93
2023-04-26T09:02:29.884Z,1.88
2023-04-26T09:04:56.552Z,1.42
2023-04-26T09:07:31.390Z,1.60
2023-04-26T09:09:59.447Z,1.45
2023-04-26T09:12:25.966Z,1.92
2023-04-26T09:14:52.543Z,1.95
2023-04-26T09:17:26.279Z,1.70
2023-04-26T09:19:53.688Z,1.08
2023-04-26T09:22:32.933Z,1.05
2023-04-26T09:24:59.808Z,0.93
2023-04-26T09:27:34.466Z,1.00
2023-04-26T09:30:04.739Z,0.90
2023-04-26T09:32:47.934Z,1.40
2023-04-26T09:35:26.576Z,1.35
2023-04-26T09:38:00.046Z,1.70
2023-04-26T09:40:30.363Z,1.45
2023-04-26T09:42:58.414Z,2.30
2023-04-26T09:45:25.393Z,2.20
2023-04-26T09:47:52.019Z,1.98
2023-04-26T09:50:29.063Z,1.70
2023-04-26T09:52:57.924Z,1.60
2023-04-26T09:55:34.962Z,1.77
2023-04-26T09:58:08.877Z,1.83
2023-04-26T10:00:38.369Z,1.58
2023-04-26T10:03:07.590Z,1.30
2023-04-26T10:05:34.394Z,1.25
2023-04-26T10:08:02.588Z,1.38
2023-04-26T10:10:30.015Z,1.85
2023-04-26T10:12:56.463Z,2.03
2023-04-26T10:15:23.547Z,1.73
2023-04-26T10:17:52.066Z,1.73
2023-04-26T10:20:20.918Z,1.50
2023-04-26T10:22:52.686Z,1.85
2023-04-26T10:25:21.111Z,2.08
2023-04-26T10:27:51.366Z,1.17
2023-04-26T10:30:19.596Z,1.42
2023-04-26T10:33:16.146Z,0.95
2023-04-26T10:36:15.740Z,1.25
2023-04-26T10:39:02.904Z,1.60
2023-04-26T10:41:35.561Z,1.27
2023-04-26T10:44:40.009Z,1.67
2023-04-26T10:47:08.047Z,1.10
2023-04-26T10:49:45.421Z,1.45
2023-04-26T10:52:13.867Z,1.25
2023-04-26T10:54:48.146Z,1.52
2023-04-26T10:57:16.458Z,1.70
2023-04-26T11:00:16.840Z,1.30
2023-04-26T11:02:53.386Z,1.75
2023-04-26T11:05:41.235Z,1.90
2023-04-26T11:08:14.639Z,1.60
2023-04-26T11:10:41.575Z,2.33
2023-04-26T11:13:09.567Z,1.60
2023-04-26T11:15:36.336Z,1.60
2023-04-26T11:18:03.826Z,1.80
2023-04-26T11:20:31.018Z,1.80
2023-04-26T11:22:57.959Z,1.50
2023-04-26T11:25:25.623Z,1.63
2023-04-26T11:27:52.184Z,1.67
2023-04-26T11:30:20.084Z,1.77
2023-04-26T11:32:46.716Z,1.58
2023-04-26T11:35:13.686Z,1.95
2023-04-26T11:37:40.233Z,1.75
2023-04-26T11:40:10.392Z,1.80
2023-04-26T11:42:37.000Z,2.22
2023-04-26T11:45:03.901Z,1.80
2023-04-26T11:47:31.843Z,1.63
2023-04-26T11:49:58.432Z,1.67
2023-04-26T11:52:26.184Z,2.00
2023-04-26T11:55:01.590Z,2.28
2023-04-26T11:57:30.746Z,1.95
2023-04-26T12:00:07.897Z,1.63
2023-04-26T12:02:37.088Z,1.80
2023-04-26T12:05:04.310Z,2.30
2023-04-26T12:07:35.642Z,1.70
2023-04-26T12:10:14.559Z,2.22
2023-04-26T12:12:44.766Z,2.30
2023-04-26T12:15:13.841Z,1.75
2023-04-26T12:17:52.105Z,2.33
2023-04-26T12:20:19.254Z,1.65
2023-04-26T12:23:06.409Z,1.60
2023-04-26T12:25:34.035Z,2.15
2023-04-26T12:28:01.484Z,1.73
2023-04-26T12:30:31.177Z,1.73
2023-04-26T12:33:09.201Z,1.40
2023-04-26T12:35:41.960Z,2.28
2023-04-26T12:38:08.463Z,1.55
2023-04-26T12:40:36.321Z,1.67
2023-04-26T12:43:02.846Z,1.60
2023-04-26T12:45:29.426Z,1.80
2023-04-26T12:47:55.993Z,2.20
2023-04-26T12:50:24.083Z,1.77
2023-04-26T12:52:50.609Z,1.80
2023-04-26T12:55:17.409Z,1.65
2023-04-26T12:57:44.852Z,1.90
2023-04-26T13:00:13.517Z,1.77
2023-04-26T13:02:40.810Z,1.73
2023-04-26T13:05:08.022Z,1.55
2023-04-26T13:07:37.277Z,1.73
2023-04-26T13:10:05.303Z,1.35
2023-04-26T13:12:32.039Z,1.65
2023-04-26T13:14:58.651Z,1.60
2023-04-26T13:17:25.925Z,1.60
2023-04-26T13:19:53.112Z,1.50
2023-04-26T13:22:20.441Z,1.77
2023-04-26T13:24:48.571Z,1.98
2023-04-26T13:27:15.124Z,1.80
2023-04-26T13:29:41.631Z,1.88
2023-04-26T13:32:08.261Z,1.95
2023-04-26T13:34:35.989Z,1.70
2023-04-26T13:37:02.639Z,2.05
2023-04-26T13:39:29.386Z,1.85
2023-04-26T13:41:58.490Z,1.85
2023-04-26T13:44:25.217Z,1.88
2023-04-26T13:46:51.688Z,1.90
2023-04-26T13:49:18.200Z,1.88
2023-04-26T13:51:44.736Z,1.83
2023-04-26T13:54:11.212Z,1.73
2023-04-26T13:56:37.722Z,1.88
2023-04-26T13:59:05.583Z,1.67
2023-04-26T14:01:34.189Z,1.45
2023-04-26T14:04:00.919Z,1.73
2023-04-26T14:06:27.679Z,2.40
2023-04-26T14:08:54.264Z,1.80
2023-04-26T14:11:20.880Z,1.48
2023-04-26T14:13:47.338Z,2.20
2023-04-26T14:16:15.240Z,1.77
2023-04-26T14:18:41.834Z,2.15
2023-04-26T14:21:08.349Z,1.52
2023-04-26T14:23:34.805Z,2.00
2023-04-26T14:26:01.362Z,2.03
2023-04-26T14:28:28.168Z,2.03
2023-04-26T14:30:54.629Z,1.92
2023-04-26T14:33:24.928Z,2.00
2023-04-26T14:35:51.681Z,1.52
2023-04-26T14:38:18.498Z,1.75
2023-04-26T14:40:45.004Z,1.90
2023-04-26T14:43:11.504Z,1.80
2023-04-26T14:48:09.816Z,1.67
2023-04-26T14:50:37.849Z,2.10
2023-04-26T14:53:04.416Z,2.25
2023-04-26T14:55:30.882Z,2.40
2023-04-26T14:57:57.362Z,1.90
2023-04-26T15:00:23.896Z,2.10
2023-04-26T15:02:50.577Z,1.90
2023-04-26T15:05:17.390Z,1.98
2023-04-26T15:07:45.213Z,2.22
2023-04-26T15:10:11.739Z,2.33
2023-04-26T15:12:38.307Z,1.85
2023-04-26T15:15:05.758Z,2.30
2023-04-26T15:17:32.243Z,2.47
2023-04-26T15:19:58.768Z,2.60
2023-04-26T15:22:25.321Z,2.42
2023-04-26T15:24:53.247Z,2.47
2023-04-26T15:27:19.782Z,2.70
2023-04-26T15:29:46.321Z,2.53
2023-04-26T15:32:12.877Z,2.95
2023-04-26T15:34:41.031Z,2.83
2023-04-26T15:37:07.528Z,2.65
2023-04-26T15:39:33.999Z,2.80
2023-04-26T15:42:01.831Z,2.88
2023-04-26T15:44:28.327Z,3.22
2023-04-26T15:46:54.821Z,2.90
2023-04-26T15:49:23.373Z,3.00
2023-04-26T15:51:49.910Z,2.95
2023-04-26T15:54:16.483Z,2.95
2023-04-26T15:56:43.724Z,2.47
2023-04-26T15:59:11.567Z,2.72
2023-04-26T16:01:38.170Z,3.25
2023-04-26T16:04:07.844Z,2.95
2023-04-26T16:06:34.461Z,3.33
2023-04-26T16:09:02.060Z,2.97
2023-04-26T16:11:28.663Z,3.05
2023-04-26T16:13:55.208Z,2.90
2023-04-26T16:16:23.058Z,2.85
2023-04-26T16:18:50.272Z,3.10
2023-04-26T16:21:16.812Z,3.95
2023-04-26T16:23:43.337Z,3.03
2023-04-26T16:26:09.888Z,3.40
2023-04-26T16:28:36.576Z,3.58
2023-04-26T16:31:03.272Z,3.20
2023-04-26T16:33:31.116Z,3.72
2023-04-26T16:35:57.625Z,3.90
2023-04-26T16:38:24.177Z,4.03
2023-04-26T16:40:54.302Z,3.80
2023-04-26T16:43:21.005Z,3.72
2023-04-26T16:45:47.691Z,3.67
2023-04-26T16:48:14.248Z,3.47
2023-04-26T16:50:42.136Z,3.65
2023-04-26T16:53:08.623Z,3.45
2023-04-26T16:55:35.109Z,3.53
2023-04-26T16:58:01.597Z,3.20
2023-04-26T17:00:28.178Z,4.00
2023-04-26T17:02:54.801Z,3.78
2023-04-26T17:05:21.370Z,3.65
2023-04-26T17:07:49.206Z,3.25
2023-04-26T17:10:15.893Z,3.25
2023-04-26T17:12:42.427Z,3.35
2023-04-26T17:15:09.930Z,3.40
2023-04-26T17:17:36.495Z,3.50
2023-04-26T17:20:03.364Z,3.28
2023-04-26T17:22:29.860Z,3.55
2023-04-26T17:24:57.656Z,3.35
2023-04-26T17:27:24.620Z,3.10
2023-04-26T17:29:51.101Z,3.65
2023-04-26T17:32:17.647Z,3.13
2023-04-26T17:34:44.125Z,3.05
2023-04-26T17:37:10.653Z,3.20
2023-04-26T17:39:37.215Z,3.28
2023-04-26T17:42:05.159Z,2.78
2023-04-26T17:44:31.819Z,2.40
2023-04-26T17:46:58.352Z,2.67
2023-04-26T17:49:24.893Z,3.30
2023-04-26T17:51:51.609Z,2.45
2023-04-26T17:54:18.169Z,2.75
2023-04-26T17:56:44.830Z,3.05
2023-04-26T17:59:12.714Z,2.63
2023-04-26T18:01:39.325Z,2.60
2023-04-26T18:04:06.146Z,2.85
2023-04-26T18:06:32.915Z,2.38
2023-04-26T18:08:59.425Z,2.40
2023-04-26T18:11:25.956Z,2.15
2023-04-26T18:13:52.485Z,2.83
2023-04-26T18:16:20.417Z,2.67
2023-04-26T18:18:46.958Z,3.05
2023-04-26T18:21:13.432Z,2.55
2023-04-26T18:23:40.004Z,3.33
2023-04-26T18:26:06.645Z,2.72
2023-04-26T18:28:33.248Z,3.05
2023-04-26T18:31:00.481Z,2.90
2023-04-26T18:33:28.654Z,2.72
2023-04-26T18:35:55.306Z,3.60
2023-04-26T18:38:21.818Z,3.08
2023-04-26T18:40:48.337Z,3.88
2023-04-26T18:43:14.815Z,2.83
2023-04-26T18:45:41.600Z,2.63
2023-04-26T18:48:08.309Z,3.92
2023-04-26T18:50:36.226Z,3.65
2023-04-26T18:53:02.817Z,4.50
2023-04-26T18:55:29.332Z,3.28
2023-04-26T18:57:55.795Z,3.40
2023-04-26T19:00:22.499Z,3.60
2023-04-26T19:02:49.199Z,3.20
2023-04-26T19:05:16.068Z,3.58
2023-04-26T19:07:44.030Z,2.88
2023-04-26T19:10:10.985Z,3.30
2023-04-26T19:12:37.515Z,3.90
2023-04-26T19:15:06.244Z,3.50
2023-04-26T19:17:32.754Z,3.75
2023-04-26T19:19:59.243Z,3.63
2023-04-26T19:22:25.723Z,3.45
2023-04-26T19:24:53.494Z,3.03
2023-04-26T19:27:19.976Z,2.88
2023-04-26T19:29:46.422Z,3.15
2023-04-26T19:32:12.933Z,3.40
2023-04-26T19:34:39.488Z,3.10
2023-04-26T19:37:06.057Z,2.90
2023-04-26T19:39:32.576Z,2.80
2023-04-26T19:42:00.395Z,3.22
2023-04-26T19:44:26.982Z,2.90
2023-04-26T19:46:53.539Z,2.67
2023-04-26T19:49:20.081Z,2.88
2023-04-26T19:51:46.581Z,3.53
2023-04-26T19:54:13.136Z,2.42
2023-04-26T19:56:39.618Z,2.90
2023-04-26T19:59:07.613Z,3.33
2023-04-26T20:01:34.534Z,2.47
2023-04-26T20:04:01.348Z,3.10
2023-04-26T20:06:27.961Z,2.85
2023-04-26T20:08:54.442Z,2.50
2023-04-26T20:11:20.922Z,2.92
2023-04-26T20:13:47.385Z,2.40
2023-04-26T20:16:15.230Z,2.60
2023-04-26T20:18:41.763Z,2.33
2023-04-26T20:21:08.274Z,2.65
2023-04-26T20:23:34.880Z,2.45
2023-04-26T20:26:01.458Z,2.72
2023-04-26T20:28:27.980Z,2.60
2023-04-26T20:30:54.459Z,2.40
2023-04-26T20:33:22.282Z,2.30
2023-04-26T20:35:48.967Z,2.75
2023-04-26T20:38:15.593Z,2.95
2023-04-26T20:40:42.114Z,3.10
2023-04-26T20:43:08.783Z,2.92
2023-04-26T20:45:35.280Z,3.05
2023-04-26T20:48:01.844Z,3.50
2023-04-26T20:50:29.769Z,3.00
2023-04-26T20:52:56.245Z,2.80
2023-04-26T20:55:22.977Z,3.10
2023-04-26T20:57:49.493Z,3.33
2023-04-26T21:00:16.569Z,3.50
2023-04-26T21:02:43.216Z,3.35
2023-04-26T21:05:10.232Z,3.17
2023-04-26T21:07:38.128Z,3.10
2023-04-26T21:10:05.424Z,2.92
2023-04-26T21:12:31.929Z,3.35
2023-04-26T21:14:58.633Z,3.05
2023-04-26T21:17:25.158Z,3.42
2023-04-26T21:19:51.737Z,3.53
2023-04-26T21:22:18.263Z,3.58
2023-04-26T21:24:46.104Z,3.28
2023-04-26T21:27:12.603Z,3.50
2023-04-26T21:29:39.183Z,3.28
2023-04-26T21:32:05.786Z,3.90
2023-04-26T21:34:32.319Z,3.30
2023-04-26T21:36:58.803Z,3.85
2023-04-26T21:39:25.318Z,3.45
2023-04-26T21:41:53.243Z,4.03
2023-04-26T21:44:19.685Z,4.05
2023-04-26T21:46:46.224Z,3.35
2023-04-26T21:49:12.762Z,3.38
2023-04-26T21:51:39.269Z,3.60
2023-04-26T21:54:05.815Z,4.05
2023-04-26T21:56:32.306Z,4.20
2023-04-26T21:59:00.187Z,3.63
2023-04-26T22:01:27.033Z,3.55
2023-04-26T22:03:53.643Z,3.78
2023-04-26T22:06:20.192Z,3.95
2023-04-26T22:08:46.736Z,3.65
2023-04-26T22:11:13.276Z,3.85
2023-04-26T22:13:39.764Z,4.45
2023-04-26T22:16:07.784Z,3.97
2023-04-26T22:18:34.345Z,3.67
2023-04-26T22:21:00.853Z,3.70
2023-04-26T22:23:27.358Z,4.25
2023-04-26T22:25:53.901Z,4.35
2023-04-26T22:28:20.391Z,4.05
2023-04-26T22:30:46.883Z,4.03
2023-04-26T22:33:14.702Z,4.10
2023-04-26T22:35:41.200Z,4.18
2023-04-26T22:38:07.686Z,4.07
2023-04-26T22:40:34.528Z,3.78
2023-04-26T22:43:01.104Z,4.70
2023-04-26T22:45:27.588Z,3.70
2023-04-26T22:47:54.179Z,4.20
2023-04-26T22:50:22.308Z,3.67
2023-04-26T22:52:48.851Z,4.30
2023-04-26T22:55:15.398Z,3.38
2023-04-26T22:57:41.900Z,4.00
2023-04-26T23:00:09.271Z,4.22
2023-04-26T23:02:35.847Z,4.03
2023-04-26T23:05:02.598Z,4.65
2023-04-26T23:07:30.443Z,3.63
2023-04-26T23:09:57.005Z,4.38
2023-04-26T23:12:23.538Z,3.80
2023-04-26T23:14:50.008Z,4.65
2023-04-26T23:17:16.581Z,4.68
2023-04-26T23:19:43.055Z,4.55
2023-04-26T23:22:09.550Z,4.50
2023-04-26T23:24:37.352Z,5.45
2023-04-26T23:27:04.099Z,4.28
2023-04-26T23:29:30.562Z,4.28
2023-04-26T23:31:57.131Z,4.20
2023-04-26T23:34:23.647Z,5.07
2023-04-26T23:36:50.108Z,3.83
2023-04-26T23:39:16.613Z,4.55
2023-04-26T23:41:44.458Z,4.03
2023-04-26T23:44:10.988Z,4.07
2023-04-26T23:46:37.507Z,4.05
2023-04-26T23:49:04.058Z,4.75
2023-04-26T23:51:30.665Z,3.97
2023-04-26T23:53:57.127Z,3.70
2023-04-26T23:56:23.745Z,4.50
2023-04-26T23:58:51.558Z,5.35
